Time;durP1;ratioP1;P1;durP2;ratioP2;P2;SDS_P1;SDS_P2;PMS_P1;PMS_P2;Temp;Humidity;BMP_temperature;BMP_pressure;BME280_temperature;BME280_humidity;BME280_pressure;Samples;Min_cycle;Max_cycle;Signal;HPM_P1;HPM_P2
2022/06/02 00:01:18;;;;;;;4.17;3.87;;;;;;;;;;4936508;29;20473;-85
2022/06/02 00:03:50;;;;;;;4.28;3.97;;;;;;;;;;4952615;29;20498;-85
2022/06/02 00:06:19;;;;;;;4.30;3.83;;;;;;;;;;4952385;29;20847;-85
2022/06/02 00:09:04;;;;;;;4.10;3.80;;;;;;;;;;4952487;29;20457;-85
2022/06/02 00:11:35;;;;;;;4.18;3.88;;;;;;;;;;4952452;29;20390;-84
2022/06/02 00:14:24;;;;;;;4.50;4.15;;;;;;;;;;4952535;29;20398;-84
2022/06/02 00:16:58;;;;;;;4.50;4.10;;;;;;;;;;4936369;29;20382;-85
2022/06/02 00:19:42;;;;;;;4.03;3.72;;;;;;;;;;4956667;28;20445;-84
2022/06/02 00:22:14;;;;;;;4.00;3.63;;;;;;;;;;5049117;28;20377;-85
2022/06/02 00:24:43;;;;;;;4.20;3.80;;;;;;;;;;5072245;28;20449;-85
2022/06/02 00:27:09;;;;;;;3.90;3.60;;;;;;;;;;5054508;28;20394;-85
2022/06/02 00:29:47;;;;;;;4.53;4.13;;;;;;;;;;5072250;28;20384;-85
2022/06/02 00:32:16;;;;;;;4.70;4.15;;;;;;;;;;5072326;28;20380;-84
2022/06/02 00:35:00;;;;;;;4.45;4.10;;;;;;;;;;5072178;28;20398;-85
2022/06/02 00:37:29;;;;;;;3.97;3.67;;;;;;;;;;5060229;28;20382;-85
2022/06/02 00:39:55;;;;;;;4.25;3.95;;;;;;;;;;5059936;28;20892;-85
2022/06/02 00:42:24;;;;;;;4.30;3.90;;;;;;;;;;5055141;28;20474;-84
2022/06/02 00:45:05;;;;;;;4.20;3.80;;;;;;;;;;5044932;28;20372;-84
2022/06/02 00:47:31;;;;;;;4.30;3.92;;;;;;;;;;5071806;28;20368;-85
2022/06/02 00:50:06;;;;;;;4.30;3.90;;;;;;;;;;5062910;28;20877;-84
2022/06/02 00:52:33;;;;;;;4.25;3.95;;;;;;;;;;5065532;28;20384;-85
2022/06/02 00:58:12;;;;;;;3.92;3.63;;;;;;;;;;5072009;28;20878;-84
2022/06/02 01:00:41;;;;;;;3.92;3.63;;;;;;;;;;5071709;28;20506;-84
2022/06/02 01:03:07;;;;;;;4.03;3.72;;;;;;;;;;5071794;28;20383;-85
2022/06/02 01:05:51;;;;;;;4.65;4.30;;;;;;;;;;5071816;28;20375;-84
2022/06/02 01:08:36;;;;;;;4.10;3.80;;;;;;;;;;5053161;28;20377;-84
2022/06/02 01:11:08;;;;;;;4.20;3.90;;;;;;;;;;5060077;28;20376;-85
2022/06/02 01:13:34;;;;;;;4.55;4.15;;;;;;;;;;5053699;28;20762;-85
2022/06/02 01:16:15;;;;;;;4.78;4.38;;;;;;;;;;5071789;28;20391;-84
2022/06/02 01:18:53;;;;;;;4.35;4.03;;;;;;;;;;5071652;28;20391;-85
2022/06/02 01:21:19;;;;;;;4.10;3.80;;;;;;;;;;5071606;28;20384;-84
2022/06/02 01:23:57;;;;;;;4.20;3.90;;;;;;;;;;5071640;28;20375;-85
2022/06/02 01:26:42;;;;;;;4.43;4.13;;;;;;;;;;5071695;28;20376;-84
2022/06/02 01:29:26;;;;;;;4.30;4.00;;;;;;;;;;5053517;28;20757;-84
2022/06/02 01:31:55;;;;;;;4.30;4.00;;;;;;;;;;5072400;28;20950;-84
2022/06/02 01:34:57;;;;;;;4.38;4.07;;;;;;;;;;5075293;28;20375;-84
2022/06/02 01:37:37;;;;;;;4.88;4.47;;;;;;;;;;4974543;28;20399;-84
2022/06/02 01:40:12;;;;;;;4.80;4.40;;;;;;;;;;5064819;28;20433;-84
2022/06/02 01:42:56;;;;;;;4.97;4.53;;;;;;;;;;5035215;28;20879;-84
2022/06/02 01:45:41;;;;;;;4.50;4.20;;;;;;;;;;5036748;28;20477;-85
2022/06/02 01:48:07;;;;;;;4.80;4.40;;;;;;;;;;5062787;28;20491;-84
2022/06/02 01:50:57;;;;;;;4.50;4.20;;;;;;;;;;5071010;28;20781;-84
2022/06/02 01:53:31;;;;;;;4.63;4.32;;;;;;;;;;5046503;28;20376;-85
2022/06/02 01:55:57;;;;;;;4.20;3.90;;;;;;;;;;5073225;28;20391;-84
2022/06/02 01:58:23;;;;;;;4.88;4.38;;;;;;;;;;5072793;28;20811;-85
2022/06/02 02:00:55;;;;;;;4.30;4.00;;;;;;;;;;5072926;28;20431;-85
2022/06/02 02:03:21;;;;;;;4.40;4.10;;;;;;;;;;5060075;28;20378;-84
2022/06/02 02:05:56;;;;;;;4.75;4.35;;;;;;;;;;5074910;28;20388;-84
2022/06/02 02:08:31;;;;;;;4.40;4.00;;;;;;;;;;5074760;28;20414;-85
2022/06/02 02:10:57;;;;;;;4.10;3.80;;;;;;;;;;5075239;28;20384;-84
2022/06/02 02:13:23;;;;;;;4.77;4.37;;;;;;;;;;5074672;28;20393;-85
2022/06/02 02:15:55;;;;;;;4.20;3.90;;;;;;;;;;5074584;28;20455;-84
2022/06/02 02:18:31;;;;;;;4.50;4.20;;;;;;;;;;5074951;28;20384;-84
2022/06/02 02:21:04;;;;;;;4.50;4.20;;;;;;;;;;5029432;28;20918;-85
2022/06/02 02:23:32;;;;;;;4.20;3.90;;;;;;;;;;5049861;28;20377;-84
2022/06/02 02:25:58;;;;;;;4.43;4.13;;;;;;;;;;5071437;28;20380;-85
2022/06/02 02:28:38;;;;;;;4.40;4.10;;;;;;;;;;5072709;28;20380;-84
2022/06/02 02:31:12;;;;;;;4.87;4.57;;;;;;;;;;5074360;28;20388;-84
2022/06/02 02:33:57;;;;;;;4.80;4.27;;;;;;;;;;5074515;28;20429;-84
2022/06/02 02:36:32;;;;;;;4.47;4.07;;;;;;;;;;5074121;28;20391;-84
2022/06/02 02:39:04;;;;;;;4.68;4.28;;;;;;;;;;5074228;28;20387;-85
2022/06/02 02:41:56;;;;;;;4.82;4.40;;;;;;;;;;5065241;28;20878;-84
2022/06/02 02:44:26;;;;;;;4.63;4.30;;;;;;;;;;5010426;28;20416;-84
2022/06/02 02:46:56;;;;;;;4.38;4.07;;;;;;;;;;5063202;28;20470;-84
2022/06/02 02:49:26;;;;;;;4.82;4.43;;;;;;;;;;5074110;28;20891;-84
2022/06/02 02:52:06;;;;;;;5.70;4.63;;;;;;;;;;5074291;28;20468;-85
2022/06/02 02:54:41;;;;;;;4.75;4.40;;;;;;;;;;5056026;28;20416;-84
2022/06/02 02:57:09;;;;;;;4.40;4.10;;;;;;;;;;5074155;28;20433;-85
2022/06/02 02:59:54;;;;;;;5.38;4.88;;;;;;;;;;5073879;28;20451;-86
2022/06/02 03:02:23;;;;;;;5.20;4.70;;;;;;;;;;5073717;28;20845;-85
2022/06/02 03:04:49;;;;;;;5.15;4.75;;;;;;;;;;5073803;28;20382;-85
2022/06/02 03:07:15;;;;;;;5.30;4.80;;;;;;;;;;5073783;28;20375;-85
2022/06/02 03:09:52;;;;;;;4.78;4.40;;;;;;;;;;5055787;28;20449;-85
2022/06/02 03:12:24;;;;;;;5.00;4.60;;;;;;;;;;5073530;28;20386;-85
2022/06/02 03:14:59;;;;;;;5.10;4.70;;;;;;;;;;5060240;28;20382;-85
2022/06/02 03:17:34;;;;;;;4.80;4.50;;;;;;;;;;5072156;28;20463;-85
2022/06/02 03:20:21;;;;;;;5.00;4.60;;;;;;;;;;5073674;28;20482;-84
2022/06/02 03:23:06;;;;;;;6.57;4.55;;;;;;;;;;5073293;28;20371;-84
2022/06/02 03:25:46;;;;;;;5.00;4.60;;;;;;;;;;5073257;28;20375;-85
2022/06/02 03:28:19;;;;;;;4.60;4.30;;;;;;;;;;5055325;28;20415;-85
2022/06/02 03:30:53;;;;;;;4.30;3.90;;;;;;;;;;5073262;28;20388;-85
2022/06/02 03:33:38;;;;;;;4.60;4.10;;;;;;;;;;5073079;28;20426;-85
2022/06/02 03:36:07;;;;;;;4.90;4.50;;;;;;;;;;5073066;28;20383;-85
2022/06/02 03:38:48;;;;;;;4.47;4.18;;;;;;;;;;5074222;28;20376;-84
2022/06/02 03:41:31;;;;;;;4.60;4.30;;;;;;;;;;5072828;28;20438;-84
2022/06/02 03:44:00;;;;;;;4.60;4.28;;;;;;;;;;5041383;28;20876;-84
2022/06/02 03:46:26;;;;;;;5.32;4.93;;;;;;;;;;5070184;28;20384;-85
2022/06/02 03:48:58;;;;;;;5.00;4.60;;;;;;;;;;5064431;28;20388;-85
2022/06/02 03:51:37;;;;;;;4.40;4.10;;;;;;;;;;5072988;28;20379;-85
2022/06/02 03:54:18;;;;;;;4.32;4.03;;;;;;;;;;5072424;28;20388;-85
2022/06/02 03:56:47;;;;;;;4.40;4.10;;;;;;;;;;5072722;28;20376;-85
2022/06/02 03:59:21;;;;;;;4.87;4.47;;;;;;;;;;5048047;28;21011;-85
2022/06/02 04:02:07;;;;;;;4.50;4.20;;;;;;;;;;5068562;28;20471;-85
2022/06/02 04:04:39;;;;;;;4.50;4.20;;;;;;;;;;5072545;28;20403;-85
2022/06/02 04:07:08;;;;;;;4.80;4.43;;;;;;;;;;5058538;28;20379;-84
2022/06/02 04:09:44;;;;;;;4.50;4.20;;;;;;;;;;5072535;28;20470;-85
2022/06/02 04:15:49;;;;;;;4.50;4.20;;;;;;;;;;5072688;28;20359;-85
2022/06/02 04:18:27;;;;;;;4.68;4.28;;;;;;;;;;4971652;28;20440;-84
2022/06/02 04:21:02;;;;;;;4.35;4.03;;;;;;;;;;5060303;28;20425;-84
2022/06/02 04:23:47;;;;;;;3.90;3.60;;;;;;;;;;5072225;28;20462;-85
2022/06/02 04:26:18;;;;;;;4.40;4.10;;;;;;;;;;5070938;28;20504;-84
2022/06/02 04:28:51;;;;;;;4.30;3.97;;;;;;;;;;5036112;28;20391;-84
2022/06/02 04:31:17;;;;;;;4.30;4.00;;;;;;;;;;5048988;28;20397;-85
2022/06/02 04:33:55;;;;;;;3.80;3.50;;;;;;;;;;5065441;28;20414;-84
2022/06/02 04:36:21;;;;;;;4.30;4.00;;;;;;;;;;5065714;28;20866;-84
2022/06/02 04:39:09;;;;;;;3.70;3.40;;;;;;;;;;5064942;28;20861;-85
2022/06/02 04:41:38;;;;;;;4.03;3.72;;;;;;;;;;5067474;28;20423;-84
2022/06/02 04:44:12;;;;;;;4.40;4.05;;;;;;;;;;5051301;28;20374;-84
2022/06/02 04:46:44;;;;;;;3.78;3.50;;;;;;;;;;5046399;28;20845;-85
2022/06/02 04:49:18;;;;;;;4.25;3.85;;;;;;;;;;5072140;28;20383;-85
2022/06/02 04:51:50;;;;;;;3.72;3.50;;;;;;;;;;5072444;28;20371;-85
2022/06/02 04:54:24;;;;;;;3.88;3.58;;;;;;;;;;5072097;28;20379;-85
2022/06/02 04:56:56;;;;;;;3.80;3.50;;;;;;;;;;5054566;28;20375;-84
2022/06/02 04:59:26;;;;;;;3.63;3.33;;;;;;;;;;5072152;28;20464;-85
2022/06/02 05:02:10;;;;;;;3.78;3.47;;;;;;;;;;5058954;28;20810;-84
2022/06/02 05:04:54;;;;;;;3.90;3.17;;;;;;;;;;5071798;28;20391;-85
2022/06/02 05:07:29;;;;;;;3.38;3.08;;;;;;;;;;5073582;28;20367;-85
2022/06/02 05:10:01;;;;;;;3.67;3.37;;;;;;;;;;5076051;28;20375;-85
2022/06/02 05:12:34;;;;;;;3.70;3.40;;;;;;;;;;5040850;28;20888;-84
2022/06/02 05:15:01;;;;;;;3.50;3.30;;;;;;;;;;5020318;28;20406;-85
2022/06/02 05:17:46;;;;;;;3.30;3.10;;;;;;;;;;5039868;28;20387;-85
2022/06/02 05:20:18;;;;;;;3.83;3.53;;;;;;;;;;5018816;28;20399;-85
2022/06/02 05:22:52;;;;;;;3.70;3.40;;;;;;;;;;5048537;28;20375;-85
2022/06/02 05:25:37;;;;;;;3.50;3.20;;;;;;;;;;5055393;28;20862;-85
2022/06/02 05:28:03;;;;;;;3.38;3.10;;;;;;;;;;5055989;28;20384;-85
2022/06/02 05:30:33;;;;;;;3.90;3.60;;;;;;;;;;5051831;28;20384;-85
2022/06/02 05:33:08;;;;;;;3.95;3.65;;;;;;;;;;5075889;28;20470;-85
2022/06/02 05:35:34;;;;;;;3.30;3.00;;;;;;;;;;5075554;28;20454;-85
2022/06/02 05:38:13;;;;;;;3.50;3.20;;;;;;;;;;5075303;28;20856;-85
2022/06/02 05:41:00;;;;;;;3.80;3.50;;;;;;;;;;5061589;28;20906;-85
2022/06/02 05:43:29;;;;;;;3.67;3.38;;;;;;;;;;5060673;28;20371;-85
2022/06/02 05:45:58;;;;;;;3.83;3.50;;;;;;;;;;5075285;28;20399;-85
2022/06/02 05:48:33;;;;;;;4.53;3.80;;;;;;;;;;5075367;28;20470;-85
2022/06/02 05:51:21;;;;;;;4.20;3.80;;;;;;;;;;5075070;28;20379;-85
2022/06/02 05:53:47;;;;;;;3.72;3.42;;;;;;;;;;5051545;28;20450;-85
2022/06/02 05:56:14;;;;;;;4.45;3.67;;;;;;;;;;5056959;28;20923;-85
2022/06/02 05:58:59;;;;;;;4.00;3.60;;;;;;;;;;5045797;28;20397;-85
2022/06/02 06:01:32;;;;;;;3.63;3.30;;;;;;;;;;5059423;28;20396;-86
2022/06/02 06:04:16;;;;;;;3.53;3.25;;;;;;;;;;5048061;28;20800;-86
2022/06/02 06:06:44;;;;;;;3.27;2.97;;;;;;;;;;5067818;28;20388;-85
2022/06/02 06:09:14;;;;;;;3.47;3.08;;;;;;;;;;5049833;28;20737;-85
2022/06/02 06:11:59;;;;;;;3.30;3.03;;;;;;;;;;5049122;28;20899;-86
2022/06/02 06:14:27;;;;;;;3.20;3.00;;;;;;;;;;5041050;28;20396;-85
2022/06/02 06:17:20;;;;;;;3.15;2.80;;;;;;;;;;5038932;28;20444;-86
2022/06/02 06:19:57;;;;;;;2.75;2.47;;;;;;;;;;5040993;28;20407;-87
2022/06/02 06:22:25;;;;;;;2.80;2.40;;;;;;;;;;5073494;28;20384;-87
2022/06/02 06:25:14;;;;;;;3.10;2.40;;;;;;;;;;5050775;28;20861;-88
2022/06/02 06:27:52;;;;;;;2.95;2.30;;;;;;;;;;5073456;28;20383;-86
2022/06/02 06:30:18;;;;;;;2.90;2.70;;;;;;;;;;5056697;28;20466;-86
2022/06/02 06:32:47;;;;;;;3.70;2.55;;;;;;;;;;5070970;28;20440;-85
2022/06/02 06:35:22;;;;;;;2.55;2.35;;;;;;;;;;5061411;28;20419;-85
2022/06/02 06:37:49;;;;;;;2.63;2.13;;;;;;;;;;5057322;28;20384;-86
2022/06/02 06:40:16;;;;;;;2.42;2.22;;;;;;;;;;5073375;28;20892;-85
2022/06/02 06:42:42;;;;;;;2.60;2.40;;;;;;;;;;5051205;28;20985;-85
2022/06/02 06:45:14;;;;;;;2.65;2.22;;;;;;;;;;5048475;28;20384;-85
2022/06/02 06:47:43;;;;;;;2.13;2.00;;;;;;;;;;5041474;28;20397;-85
2022/06/02 06:50:18;;;;;;;2.60;2.30;;;;;;;;;;5042210;28;20397;-86
2022/06/02 06:53:03;;;;;;;2.90;2.22;;;;;;;;;;5036536;28;20399;-85
2022/06/02 06:55:48;;;;;;;2.40;2.20;;;;;;;;;;5056959;28;20449;-85
2022/06/02 06:58:20;;;;;;;2.30;2.10;;;;;;;;;;5067755;28;20376;-86
2022/06/02 07:00:50;;;;;;;3.17;2.50;;;;;;;;;;4989988;28;1913854;-86
2022/06/02 07:03:33;;;;;;;3.77;2.40;;;;;;;;;;5038785;28;20476;-86
2022/06/02 07:06:03;;;;;;;2.70;2.50;;;;;;;;;;5043879;28;20388;-86
2022/06/02 07:08:32;;;;;;;3.55;2.60;;;;;;;;;;5036794;28;20452;-86
2022/06/02 07:14:06;;;;;;;3.20;2.95;;;;;;;;;;5069374;28;20877;-85
2022/06/02 07:16:36;;;;;;;3.10;2.80;;;;;;;;;;5052491;28;20485;-85
2022/06/02 07:19:07;;;;;;;3.55;2.60;;;;;;;;;;5071522;28;20912;-86
2022/06/02 07:21:48;;;;;;;4.40;3.63;;;;;;;;;;5056359;28;20373;-84
2022/06/02 07:24:24;;;;;;;3.63;3.08;;;;;;;;;;5043690;28;20369;-85
2022/06/02 07:26:59;;;;;;;3.67;2.90;;;;;;;;;;5051383;28;20381;-84
2022/06/02 07:29:37;;;;;;;4.72;2.80;;;;;;;;;;5050003;28;20405;-85
2022/06/02 07:32:26;;;;;;;2.60;2.40;;;;;;;;;;5066385;28;20375;-86
2022/06/02 07:35:22;;;;;;;3.83;2.20;;;;;;;;;;5031430;28;20734;-88
2022/06/02 07:37:51;;;;;;;3.07;2.30;;;;;;;;;;5025159;28;20414;-87
2022/06/02 07:40:20;;;;;;;3.33;3.03;;;;;;;;;;5065473;28;20403;-88
2022/06/02 07:42:52;;;;;;;3.08;2.88;;;;;;;;;;5056032;28;20379;-87
2022/06/02 07:45:38;;;;;;;3.05;2.00;;;;;;;;;;5071156;28;20371;-88
2022/06/02 07:48:13;;;;;;;2.50;1.90;;;;;;;;;;5057933;28;20363;-87
2022/06/02 07:50:51;;;;;;;2.50;1.85;;;;;;;;;;5072981;28;20384;-88
2022/06/02 07:53:20;;;;;;;1.95;1.50;;;;;;;;;;5072970;28;20868;-90
2022/06/02 07:56:04;;;;;;;1.85;1.63;;;;;;;;;;5072942;28;20388;-87
2022/06/02 07:58:51;;;;;;;2.58;1.80;;;;;;;;;;5071904;28;20387;-88
2022/06/02 08:01:17;;;;;;;1.92;1.73;;;;;;;;;;5064473;28;20460;-85
2022/06/02 08:03:44;;;;;;;1.58;1.48;;;;;;;;;;5072744;28;20775;-86
2022/06/02 08:06:15;;;;;;;2.40;1.50;;;;;;;;;;5072771;28;20481;-86
2022/06/02 08:08:43;;;;;;;2.88;1.92;;;;;;;;;;5054987;28;21871;-86
2022/06/02 08:11:29;;;;;;;3.83;2.00;;;;;;;;;;5063077;28;21028;-86
2022/06/02 08:14:00;;;;;;;2.33;1.90;;;;;;;;;;5050672;28;20408;-86
2022/06/02 08:16:26;;;;;;;2.08;1.80;;;;;;;;;;5064612;28;20383;-86
2022/06/02 08:19:02;;;;;;;2.45;1.80;;;;;;;;;;5054796;28;20376;-87
2022/06/02 08:21:54;;;;;;;2.78;1.90;;;;;;;;;;5065379;28;20880;-85
2022/06/02 08:24:27;;;;;;;2.60;1.60;;;;;;;;;;5040357;28;20403;-86
2022/06/02 08:26:53;;;;;;;2.30;2.10;;;;;;;;;;5041359;28;20470;-86
2022/06/02 08:29:37;;;;;;;2.40;2.20;;;;;;;;;;5054112;28;20912;-87
2022/06/02 08:32:22;;;;;;;1.90;1.80;;;;;;;;;;5048988;28;20927;-86
2022/06/02 08:35:04;;;;;;;2.97;2.20;;;;;;;;;;5041320;28;20382;-87
2022/06/02 08:37:30;;;;;;;2.30;2.10;;;;;;;;;;5050982;28;20382;-86
2022/06/02 08:39:56;;;;;;;2.42;2.10;;;;;;;;;;5049893;28;20416;-85
2022/06/02 08:42:22;;;;;;;2.70;2.50;;;;;;;;;;5053647;28;20922;-86
2022/06/02 08:45:06;;;;;;;2.72;2.10;;;;;;;;;;5057248;28;20383;-85
2022/06/02 08:47:51;;;;;;;3.20;1.87;;;;;;;;;;5057157;28;20461;-85
2022/06/02 08:50:17;;;;;;;1.50;1.40;;;;;;;;;;5072412;28;20368;-85
2022/06/02 08:53:11;;;;;;;2.20;1.80;;;;;;;;;;5053418;28;20724;-85
2022/06/02 08:55:41;;;;;;;1.85;1.75;;;;;;;;;;5032865;28;20391;-85
2022/06/02 08:58:25;;;;;;;2.70;1.90;;;;;;;;;;5046452;28;20397;-84
2022/06/02 09:00:57;;;;;;;2.20;2.00;;;;;;;;;;5053312;28;20419;-85
2022/06/02 09:03:38;;;;;;;3.08;1.90;;;;;;;;;;5052352;28;20368;-85
2022/06/02 09:06:10;;;;;;;4.75;2.10;;;;;;;;;;5070349;28;20482;-85
2022/06/02 09:08:36;;;;;;;2.88;1.90;;;;;;;;;;5070393;28;20861;-85
2022/06/02 09:11:21;;;;;;;2.17;1.93;;;;;;;;;;5052347;28;20939;-85
2022/06/02 09:14:04;;;;;;;2.60;1.92;;;;;;;;;;5052307;28;20730;-85
2022/06/02 09:16:42;;;;;;;2.38;1.75;;;;;;;;;;5050024;28;20435;-85
2022/06/02 09:19:25;;;;;;;3.90;2.10;;;;;;;;;;5070552;28;20467;-84
2022/06/02 09:21:54;;;;;;;3.22;1.90;;;;;;;;;;5071916;28;20372;-84
2022/06/02 09:24:38;;;;;;;2.50;1.67;;;;;;;;;;5071726;28;20372;-84
2022/06/02 09:27:23;;;;;;;2.05;1.88;;;;;;;;;;5053965;28;20384;-84
2022/06/02 09:29:57;;;;;;;2.10;1.90;;;;;;;;;;5071914;28;20462;-84
2022/06/02 09:32:36;;;;;;;3.05;1.80;;;;;;;;;;5069929;28;20372;-84
2022/06/02 09:35:08;;;;;;;3.45;2.00;;;;;;;;;;5043325;28;20795;-84
2022/06/02 09:37:34;;;;;;;2.80;1.92;;;;;;;;;;5071665;28;20864;-83
2022/06/02 09:40:13;;;;;;;3.60;2.20;;;;;;;;;;5071583;28;20410;-84
2022/06/02 09:42:48;;;;;;;2.17;1.80;;;;;;;;;;5054787;28;20861;-84
2022/06/02 09:45:14;;;;;;;3.20;1.88;;;;;;;;;;5071791;28;20376;-84
2022/06/02 09:47:43;;;;;;;2.33;1.70;;;;;;;;;;5071573;28;20473;-84
2022/06/02 09:50:18;;;;;;;2.47;1.92;;;;;;;;;;5071911;28;20371;-84
2022/06/02 09:53:02;;;;;;;2.92;2.08;;;;;;;;;;5072282;28;20412;-84
2022/06/02 09:55:53;;;;;;;3.40;1.83;;;;;;;;;;5069712;28;20393;-84
2022/06/02 09:58:30;;;;;;;3.15;2.30;;;;;;;;;;5056515;28;20389;-84
2022/06/02 10:01:14;;;;;;;2.33;1.90;;;;;;;;;;5076597;28;20407;-84
2022/06/02 10:03:49;;;;;;;5.05;2.45;;;;;;;;;;5060565;28;20407;-84
2022/06/02 10:06:25;;;;;;;3.80;2.50;;;;;;;;;;5074912;28;20387;-84
2022/06/02 10:09:09;;;;;;;2.78;2.50;;;;;;;;;;5075185;28;20372;-84
2022/06/02 10:11:50;;;;;;;2.95;2.75;;;;;;;;;;5074857;28;20892;-83
2022/06/02 10:14:31;;;;;;;5.22;2.50;;;;;;;;;;5074817;28;20380;-84
2022/06/02 10:17:06;;;;;;;3.05;2.28;;;;;;;;;;5074769;28;20387;-84
2022/06/02 10:19:50;;;;;;;2.78;2.53;;;;;;;;;;5074836;28;20869;-84
2022/06/02 10:22:35;;;;;;;3.97;2.70;;;;;;;;;;5074534;28;20391;-84
2022/06/02 10:25:21;;;;;;;4.88;2.03;;;;;;;;;;5074599;28;20368;-85
2022/06/02 10:27:59;;;;;;;2.83;2.30;;;;;;;;;;5074527;28;20422;-85
2022/06/02 10:30:28;;;;;;;2.50;2.30;;;;;;;;;;5068139;28;20741;-85
2022/06/02 10:33:13;;;;;;;2.70;2.47;;;;;;;;;;5048916;28;20434;-85
2022/06/02 10:35:58;;;;;;;7.63;2.55;;;;;;;;;;5069355;28;20392;-84
2022/06/02 10:38:28;;;;;;;4.80;2.27;;;;;;;;;;5056457;28;20901;-85
2022/06/02 10:41:00;;;;;;;3.10;2.25;;;;;;;;;;5074193;28;20877;-85
2022/06/02 10:43:36;;;;;;;2.40;2.20;;;;;;;;;;5039454;28;20718;-86
2022/06/02 10:46:08;;;;;;;3.03;2.17;;;;;;;;;;5074175;28;20857;-85
2022/06/02 10:48:34;;;;;;;2.70;2.08;;;;;;;;;;5074232;28;20382;-85
2022/06/02 10:51:19;;;;;;;2.43;2.17;;;;;;;;;;5074111;28;20528;-85
2022/06/02 10:54:00;;;;;;;2.20;1.90;;;;;;;;;;5074296;28;20794;-85
2022/06/02 10:56:37;;;;;;;2.15;1.95;;;;;;;;;;5074104;28;20482;-86
2022/06/02 10:59:10;;;;;;;3.63;1.60;;;;;;;;;;5074143;28;20384;-85
2022/06/02 11:01:45;;;;;;;2.45;1.98;;;;;;;;;;5073860;28;20383;-85
2022/06/02 11:04:13;;;;;;;2.72;2.10;;;;;;;;;;5072920;28;20475;-86
2022/06/02 11:06:41;;;;;;;2.05;1.83;;;;;;;;;;5073800;28;20368;-86
2022/06/02 11:09:07;;;;;;;3.50;2.30;;;;;;;;;;5073820;28;20364;-86
2022/06/02 11:11:45;;;;;;;2.60;2.38;;;;;;;;;;5073739;28;20459;-85
2022/06/02 11:14:26;;;;;;;2.40;2.20;;;;;;;;;;5073638;28;20391;-85
2022/06/02 11:17:24;;;;;;;3.10;2.10;;;;;;;;;;5073677;28;20466;-85
2022/06/02 11:20:09;;;;;;;3.17;2.05;;;;;;;;;;5019143;28;20945;-86
2022/06/02 11:22:37;;;;;;;2.53;1.80;;;;;;;;;;5068685;28;20423;-86
2022/06/02 11:25:13;;;;;;;2.25;2.00;;;;;;;;;;5035689;28;20382;-85
2022/06/02 11:27:57;;;;;;;3.47;2.00;;;;;;;;;;5072226;28;20457;-85
2022/06/02 11:30:42;;;;;;;2.63;2.38;;;;;;;;;;5073419;28;20376;-85
2022/06/02 11:33:35;;;;;;;7.28;2.13;;;;;;;;;;5073293;28;20388;-85
2022/06/02 11:36:01;;;;;;;3.05;2.10;;;;;;;;;;5073240;28;20384;-85
2022/06/02 11:38:46;;;;;;;1.80;1.70;;;;;;;;;;5055265;28;20479;-85
2022/06/02 11:41:15;;;;;;;1.95;1.73;;;;;;;;;;5073007;28;20888;-85
2022/06/02 11:43:44;;;;;;;2.30;2.05;;;;;;;;;;5056094;28;20860;-85
2022/06/02 11:46:25;;;;;;;1.92;1.83;;;;;;;;;;5072998;28;20380;-85
2022/06/02 11:48:58;;;;;;;2.08;1.65;;;;;;;;;;5073116;28;20372;-85
2022/06/02 11:51:30;;;;;;;4.75;3.90;;;;;;;;;;5072906;28;20466;-85
2022/06/02 11:53:59;;;;;;;4.88;3.17;;;;;;;;;;5054940;28;20384;-85
2022/06/02 11:56:44;;;;;;;2.22;1.80;;;;;;;;;;5056730;28;20432;-85
2022/06/02 11:59:10;;;;;;;2.95;2.20;;;;;;;;;;5049811;28;20418;-85
2022/06/02 12:01:47;;;;;;;2.67;1.80;;;;;;;;;;5072747;28;20404;-86
2022/06/02 12:04:31;;;;;;;2.85;1.63;;;;;;;;;;5072760;28;20398;-85
2022/06/02 12:07:13;;;;;;;2.15;1.95;;;;;;;;;;5072652;28;20929;-85
2022/06/02 12:09:50;;;;;;;3.22;1.65;;;;;;;;;;5072791;28;20384;-85
2022/06/02 12:12:38;;;;;;;1.70;1.55;;;;;;;;;;5072478;28;20421;-85
2022/06/02 12:15:18;;;;;;;2.03;1.50;;;;;;;;;;5054967;28;20386;-85
2022/06/02 12:17:50;;;;;;;1.58;1.48;;;;;;;;;;5047290;28;20407;-85
2022/06/02 12:20:31;;;;;;;2.20;1.70;;;;;;;;;;5072699;28;20457;-85
2022/06/02 12:22:56;;;;;;;1.60;1.40;;;;;;;;;;5060502;28;20461;-84
2022/06/02 12:25:31;;;;;;;2.25;2.05;;;;;;;;;;5072687;28;20472;-84
2022/06/02 12:28:03;;;;;;;2.45;1.60;;;;;;;;;;5072696;28;20372;-85
2022/06/02 12:30:39;;;;;;;1.98;1.65;;;;;;;;;;5062442;28;20508;-85
2022/06/02 12:33:23;;;;;;;2.50;1.73;;;;;;;;;;5047393;28;20380;-85
2022/06/02 12:36:19;;;;;;;2.30;1.90;;;;;;;;;;5072256;28;20400;-85
2022/06/02 12:38:45;;;;;;;2.00;1.70;;;;;;;;;;5050987;28;20422;-85
2022/06/02 12:41:20;;;;;;;3.72;1.90;;;;;;;;;;5072105;28;20431;-85
2022/06/02 12:43:49;;;;;;;1.75;1.65;;;;;;;;;;5037692;28;20438;-85
2022/06/02 12:46:21;;;;;;;2.85;1.70;;;;;;;;;;5054208;28;20384;-85
2022/06/02 12:49:16;;;;;;;2.10;1.90;;;;;;;;;;5072325;28;20470;-85
2022/06/02 12:52:10;;;;;;;1.70;1.60;;;;;;;;;;4983780;28;20432;-85
2022/06/02 12:54:49;;;;;;;2.00;1.70;;;;;;;;;;5072100;28;20380;-85
2022/06/02 12:57:18;;;;;;;2.92;1.83;;;;;;;;;;5072099;28;20379;-85
2022/06/02 13:00:03;;;;;;;3.53;1.92;;;;;;;;;;5072275;28;20884;-85
2022/06/02 13:02:42;;;;;;;1.88;1.60;;;;;;;;;;5072236;28;20459;-85
2022/06/02 13:05:28;;;;;;;2.10;1.90;;;;;;;;;;5072080;28;20848;-84
2022/06/02 13:08:12;;;;;;;1.85;1.60;;;;;;;;;;5072090;28;20375;-85
2022/06/02 13:10:53;;;;;;;2.33;1.70;;;;;;;;;;5071933;28;20510;-85
2022/06/02 13:13:37;;;;;;;2.13;1.60;;;;;;;;;;5071978;28;20379;-84
2022/06/02 13:16:22;;;;;;;2.93;2.00;;;;;;;;;;5047082;28;20384;-85
2022/06/02 13:18:56;;;;;;;2.20;1.73;;;;;;;;;;5071846;28;20886;-84
2022/06/02 13:21:41;;;;;;;1.80;1.70;;;;;;;;;;5072062;28;20403;-85
2022/06/02 13:24:25;;;;;;;2.30;2.10;;;;;;;;;;5071703;28;20370;-84
2022/06/02 13:26:54;;;;;;;3.33;2.17;;;;;;;;;;5071927;28;20376;-84
2022/06/02 13:29:23;;;;;;;2.20;2.00;;;;;;;;;;5056536;28;20377;-84
2022/06/02 13:32:08;;;;;;;2.50;2.30;;;;;;;;;;5066843;28;20407;-84
2022/06/02 13:34:53;;;;;;;2.58;2.38;;;;;;;;;;5075552;28;20398;-84
2022/06/02 13:37:39;;;;;;;2.97;2.10;;;;;;;;;;5075521;28;20376;-84
2022/06/02 13:40:08;;;;;;;2.40;2.20;;;;;;;;;;5075481;28;20460;-85
2022/06/02 13:42:43;;;;;;;2.65;2.45;;;;;;;;;;5058318;28;20441;-83
2022/06/02 13:45:27;;;;;;;2.97;2.60;;;;;;;;;;5075384;28;20376;-85
2022/06/02 13:47:59;;;;;;;2.63;2.20;;;;;;;;;;5075267;28;20419;-84
2022/06/02 13:50:34;;;;;;;2.20;2.00;;;;;;;;;;5075444;28;20902;-84
2022/06/02 13:53:04;;;;;;;2.20;2.00;;;;;;;;;;5075119;28;20439;-84
2022/06/02 13:58:23;;;;;;;2.00;1.90;;;;;;;;;;5055807;28;20376;-84
2022/06/02 14:01:09;;;;;;;2.73;2.30;;;;;;;;;;5074920;28;20415;-84
2022/06/02 14:03:47;;;;;;;2.38;2.25;;;;;;;;;;5074950;28;20913;-84
2022/06/02 14:06:15;;;;;;;2.53;2.33;;;;;;;;;;5075043;28;20384;-84
2022/06/02 14:09:00;;;;;;;2.20;2.00;;;;;;;;;;5074955;28;20380;-84
2022/06/02 14:11:26;;;;;;;2.67;2.45;;;;;;;;;;5067331;28;20381;-84
2022/06/02 14:14:00;;;;;;;2.63;2.10;;;;;;;;;;5072431;28;20387;-83
2022/06/02 14:16:35;;;;;;;2.35;1.98;;;;;;;;;;5075010;28;20391;-84
2022/06/02 14:19:30;;;;;;;2.65;2.13;;;;;;;;;;5070594;28;20381;-84
2022/06/02 14:22:18;;;;;;;1.90;1.80;;;;;;;;;;5059522;28;20399;-84
2022/06/02 14:24:58;;;;;;;3.90;2.40;;;;;;;;;;5074738;28;20729;-84
2022/06/02 14:27:37;;;;;;;2.53;2.33;;;;;;;;;;5056590;28;20803;-83
2022/06/02 14:30:11;;;;;;;3.40;2.22;;;;;;;;;;5074530;28;20434;-84
2022/06/02 14:32:40;;;;;;;2.20;2.10;;;;;;;;;;5074449;28;20396;-83
2022/06/02 14:35:25;;;;;;;4.10;2.10;;;;;;;;;;5074511;28;20386;-83
2022/06/02 14:37:51;;;;;;;2.50;2.30;;;;;;;;;;5059032;28;20376;-83
2022/06/02 14:40:23;;;;;;;2.33;2.13;;;;;;;;;;5074073;28;20734;-84
2022/06/02 14:43:04;;;;;;;3.00;2.80;;;;;;;;;;5057125;28;20387;-84
2022/06/02 14:45:36;;;;;;;2.38;2.17;;;;;;;;;;5074313;28;20372;-84
2022/06/02 14:48:21;;;;;;;2.40;2.20;;;;;;;;;;5074234;28;20379;-84
2022/06/02 14:50:55;;;;;;;2.80;2.50;;;;;;;;;;5055939;28;20899;-83
2022/06/02 14:53:21;;;;;;;2.33;2.13;;;;;;;;;;5074514;28;20372;-83
2022/06/02 14:55:50;;;;;;;2.70;2.50;;;;;;;;;;5074025;28;20466;-83
2022/06/02 14:58:22;;;;;;;2.35;2.03;;;;;;;;;;5074005;28;20463;-83
2022/06/02 15:00:57;;;;;;;2.47;2.28;;;;;;;;;;5073849;28;20415;-84
2022/06/02 15:03:32;;;;;;;2.85;2.20;;;;;;;;;;5074123;28;20379;-83
2022/06/02 15:05:58;;;;;;;3.33;2.28;;;;;;;;;;5073848;28;20380;-83
2022/06/02 15:08:24;;;;;;;2.08;1.83;;;;;;;;;;5074117;28;20372;-83
2022/06/02 15:11:10;;;;;;;2.73;2.30;;;;;;;;;;5072940;28;20484;-84
2022/06/02 15:13:57;;;;;;;2.47;2.28;;;;;;;;;;5072951;28;20880;-83
2022/06/02 15:16:40;;;;;;;2.65;2.15;;;;;;;;;;5068672;28;20411;-84
2022/06/02 15:19:14;;;;;;;3.30;2.55;;;;;;;;;;5052489;28;20463;-84
2022/06/02 15:21:45;;;;;;;2.50;2.30;;;;;;;;;;5071331;28;20460;-84
2022/06/02 15:24:18;;;;;;;2.85;2.55;;;;;;;;;;5069228;28;20368;-83
2022/06/02 15:26:58;;;;;;;3.28;2.60;;;;;;;;;;5046336;28;20377;-82
2022/06/02 15:29:24;;;;;;;4.30;2.70;;;;;;;;;;5054440;28;20411;-83
2022/06/02 15:32:00;;;;;;;2.92;2.72;;;;;;;;;;5061558;28;20389;-82
2022/06/02 15:34:44;;;;;;;3.00;2.70;;;;;;;;;;5071298;28;20880;-83
2022/06/02 15:37:26;;;;;;;3.47;2.57;;;;;;;;;;5060907;28;20484;-83
2022/06/02 15:39:58;;;;;;;3.22;2.80;;;;;;;;;;5040117;28;20473;-84
2022/06/02 15:42:52;;;;;;;3.00;2.70;;;;;;;;;;5044627;28;20375;-83
2022/06/02 15:45:27;;;;;;;3.07;2.30;;;;;;;;;;5068474;28;20405;-84
2022/06/02 15:48:02;;;;;;;2.60;2.40;;;;;;;;;;5056464;28;20391;-84